createdAt,value
2023-04-28T00:00:21.576Z,12.32
2023-04-28T00:02:50.046Z,12.33
2023-04-28T00:05:18.704Z,12.31
2023-04-28T00:07:47.221Z,12.34
2023-04-28T00:10:15.882Z,12.34
2023-04-28T00:12:45.632Z,12.33
2023-04-28T00:15:13.948Z,12.34
2023-04-28T00:17:42.372Z,12.34
2023-04-28T00:20:13.066Z,12.35
2023-04-28T00:22:41.439Z,12.34
2023-04-28T00:25:11.125Z,12.34
2023-04-28T00:27:39.452Z,12.31
2023-04-28T00:30:16.516Z,12.31
2023-04-28T00:32:44.984Z,12.29
2023-04-28T00:35:13.334Z,12.29
2023-04-28T00:37:41.652Z,12.29
2023-04-28T00:40:11.305Z,12.29
2023-04-28T00:42:39.625Z,12.27
2023-04-28T00:45:09.200Z,12.26
2023-04-28T00:47:39.631Z,12.24
2023-04-28T00:50:10.621Z,12.21
2023-04-28T00:52:40.590Z,12.20
2023-04-28T00:55:10.585Z,12.18
2023-04-28T00:57:38.940Z,12.17
2023-04-28T01:00:09.143Z,12.17
2023-04-28T01:02:39.161Z,12.15
2023-04-28T01:05:08.122Z,12.14
2023-04-28T01:07:37.211Z,12.14
2023-04-28T01:10:06.984Z,12.14
2023-04-28T01:12:35.290Z,12.13
2023-04-28T01:15:04.228Z,12.13
2023-04-28T01:17:32.622Z,12.10
2023-04-28T01:20:02.577Z,12.08
2023-04-28T01:22:31.049Z,12.08
2023-04-28T01:25:00.915Z,12.06
2023-04-28T01:27:29.238Z,12.05
2023-04-28T01:30:02.861Z,12.06
2023-04-28T01:32:31.220Z,12.04
2023-04-28T01:34:59.606Z,12.02
2023-04-28T01:37:27.978Z,12.02
2023-04-28T01:39:56.316Z,12.02
2023-04-28T01:42:28.728Z,12.01
2023-04-28T01:44:57.145Z,12.01
2023-04-28T01:47:25.806Z,12.01
2023-04-28T01:49:54.149Z,12.01
2023-04-28T01:52:27.344Z,12.02
2023-04-28T01:54:56.005Z,12.02
2023-04-28T01:57:24.461Z,12.02
2023-04-28T01:59:54.182Z,12.03
2023-04-28T02:02:22.689Z,12.04
2023-04-28T02:04:51.444Z,12.03
2023-04-28T02:07:19.846Z,12.02
2023-04-28T02:09:48.332Z,12.00
2023-04-28T02:12:19.364Z,11.99
2023-04-28T02:14:47.627Z,11.95
2023-04-28T02:17:17.406Z,11.94
2023-04-28T02:19:45.769Z,11.91
2023-04-28T02:22:14.047Z,11.91
2023-04-28T02:24:42.342Z,11.90
2023-04-28T02:27:10.669Z,11.87
2023-04-28T02:29:39.000Z,11.84
2023-04-28T02:32:08.010Z,11.86
2023-04-28T02:34:37.676Z,11.84
2023-04-28T02:37:08.599Z,11.81
2023-04-28T02:39:36.932Z,11.81
2023-04-28T02:42:05.590Z,11.81
2023-04-28T02:44:33.934Z,11.80
2023-04-28T02:47:02.486Z,11.78
2023-04-28T02:49:30.953Z,11.78
2023-04-28T02:52:00.831Z,11.76
2023-04-28T02:54:29.165Z,11.74
2023-04-28T02:56:58.040Z,11.72
2023-04-28T02:59:27.247Z,11.70
2023-04-28T03:01:55.562Z,11.70
2023-04-28T03:04:23.974Z,11.66
2023-04-28T03:06:52.449Z,11.65
2023-04-28T03:09:22.329Z,11.63
2023-04-28T03:11:50.912Z,11.63
2023-04-28T03:14:19.205Z,11.60
2023-04-28T03:16:47.650Z,11.59
2023-04-28T03:19:15.988Z,11.58
2023-04-28T03:21:44.361Z,11.56
2023-04-28T03:24:12.733Z,11.56
2023-04-28T03:26:42.518Z,11.54
2023-04-28T03:29:13.387Z,11.52
2023-04-28T03:31:41.772Z,11.53
2023-04-28T03:34:10.095Z,11.53
2023-04-28T03:36:38.417Z,11.53
2023-04-28T03:39:06.726Z,11.52
2023-04-28T03:41:35.020Z,11.52
2023-04-28T03:44:04.746Z,11.49
2023-04-28T03:46:34.623Z,11.50
2023-04-28T03:49:03.344Z,11.49
2023-04-28T03:51:32.989Z,11.48
2023-04-28T03:54:01.534Z,11.50
2023-04-28T03:56:29.903Z,11.48
2023-04-28T03:58:58.323Z,11.48
2023-04-28T04:01:28.137Z,11.48
2023-04-28T04:03:56.754Z,11.50
2023-04-28T04:06:28.500Z,11.49
2023-04-28T04:08:56.969Z,11.52
2023-04-28T04:11:25.345Z,11.52
2023-04-28T04:13:53.733Z,11.51
2023-04-28T04:16:25.335Z,11.50
2023-04-28T04:18:55.106Z,11.52
2023-04-28T04:21:23.488Z,11.52
2023-04-28T04:23:51.829Z,11.50
2023-04-28T04:26:20.241Z,11.53
2023-04-28T04:28:48.514Z,11.52
2023-04-28T04:31:17.043Z,11.53
2023-04-28T04:33:45.495Z,11.54
2023-04-28T04:36:15.209Z,11.55
2023-04-28T04:38:43.526Z,11.58
2023-04-28T04:41:11.836Z,11.61
2023-04-28T04:43:42.769Z,11.63
2023-04-28T04:46:11.192Z,11.63
2023-04-28T04:48:39.572Z,11.63
2023-04-28T04:51:08.012Z,11.64
2023-04-28T04:53:37.704Z,11.65
2023-04-28T04:56:06.892Z,11.67
2023-04-28T04:58:35.307Z,11.67
2023-04-28T05:01:03.594Z,11.67
2023-04-28T05:03:32.117Z,11.67
2023-04-28T05:06:01.549Z,11.71
2023-04-28T05:08:29.858Z,11.73
2023-04-28T05:11:02.629Z,11.76
2023-04-28T05:13:35.337Z,11.79
2023-04-28T05:16:03.692Z,11.81
2023-04-28T05:18:32.231Z,11.83
2023-04-28T05:21:03.643Z,11.86
2023-04-28T05:23:31.934Z,11.90
2023-04-28T05:26:03.066Z,11.92
2023-04-28T05:28:31.728Z,11.95
2023-04-28T05:31:00.079Z,11.96
2023-04-28T05:33:28.424Z,11.99
2023-04-28T05:35:56.757Z,12.00
2023-04-28T05:38:28.264Z,12.03
2023-04-28T05:40:59.406Z,12.06
2023-04-28T05:43:29.416Z,12.11
2023-04-28T05:45:57.827Z,12.16
2023-04-28T05:48:26.288Z,12.19
2023-04-28T05:50:54.575Z,12.29
2023-04-28T05:53:22.905Z,12.33
2023-04-28T05:55:51.322Z,12.38
2023-04-28T05:58:19.658Z,12.42
2023-04-28T06:00:49.435Z,12.45
2023-04-28T06:03:19.262Z,12.49
2023-04-28T06:05:48.008Z,12.54
2023-04-28T06:08:16.493Z,12.58
2023-04-28T06:10:44.906Z,12.62
2023-04-28T06:13:15.048Z,12.66
2023-04-28T06:15:43.503Z,12.69
2023-04-28T06:18:13.319Z,12.76
2023-04-28T06:20:41.605Z,12.80
2023-04-28T06:23:10.156Z,12.85
2023-04-28T06:25:38.566Z,12.91
2023-04-28T06:28:07.988Z,12.95
2023-04-28T06:30:36.978Z,13.01
2023-04-28T06:33:05.412Z,13.04
2023-04-28T06:35:39.150Z,13.08
2023-04-28T06:38:11.197Z,13.10
2023-04-28T06:40:40.732Z,13.11
2023-04-28T06:43:09.065Z,13.12
2023-04-28T06:45:37.473Z,13.10
2023-04-28T06:48:06.583Z,13.14
2023-04-28T06:50:36.792Z,13.14
2023-04-28T06:53:05.062Z,13.16
2023-04-28T06:55:34.013Z,13.19
2023-04-28T06:58:02.474Z,13.20
2023-04-28T07:00:30.909Z,13.22
2023-04-28T07:02:59.335Z,13.24
2023-04-28T07:05:27.921Z,13.25
2023-04-28T07:07:57.584Z,13.27
2023-04-28T07:10:25.994Z,13.29
2023-04-28T07:12:54.387Z,13.29
2023-04-28T07:15:23.987Z,13.29
2023-04-28T07:17:52.518Z,13.31
2023-04-28T07:20:21.397Z,13.28
2023-04-28T07:22:49.875Z,13.26
2023-04-28T07:25:19.687Z,13.25
2023-04-28T07:27:48.051Z,13.25
2023-04-28T07:30:27.502Z,13.23
2023-04-28T07:32:56.915Z,13.22
2023-04-28T07:35:25.752Z,13.23
2023-04-28T07:37:54.827Z,13.22
2023-04-28T07:40:24.792Z,13.21
2023-04-28T07:42:53.184Z,13.22
2023-04-28T07:45:21.667Z,13.20
2023-04-28T07:47:50.031Z,13.22
2023-04-28T07:50:18.410Z,13.26
2023-04-28T07:52:46.783Z,13.26
2023-04-28T07:55:15.144Z,13.29
2023-04-28T07:57:44.817Z,13.28
2023-04-28T08:00:14.703Z,13.30
2023-04-28T08:02:43.282Z,13.33
2023-04-28T08:05:12.052Z,13.37
2023-04-28T08:07:40.504Z,13.39
2023-04-28T08:10:10.680Z,13.39
2023-04-28T08:12:40.873Z,13.44
2023-04-28T08:15:11.701Z,13.46
2023-04-28T08:17:40.074Z,13.49
2023-04-28T08:20:10.386Z,13.50
2023-04-28T08:22:38.710Z,13.54
2023-04-28T08:25:08.373Z,13.55
2023-04-28T08:27:38.325Z,13.58
2023-04-28T08:30:11.553Z,13.60
2023-04-28T08:32:41.359Z,13.66
2023-04-28T08:35:10.441Z,13.67
2023-04-28T08:37:38.796Z,13.70
2023-04-28T08:40:13.790Z,13.74
2023-04-28T08:42:42.968Z,13.75
2023-04-28T08:45:15.694Z,13.76
2023-04-28T08:47:47.711Z,13.73
2023-04-28T08:50:16.716Z,13.75
2023-04-28T08:52:45.063Z,13.78
2023-04-28T08:55:15.776Z,13.77
2023-04-28T08:57:54.098Z,13.77
2023-04-28T09:00:23.349Z,13.77
2023-04-28T09:02:53.164Z,13.79
2023-04-28T09:05:22.128Z,13.82
2023-04-28T09:07:52.133Z,13.83
2023-04-28T09:10:23.309Z,13.87
2023-04-28T09:12:55.159Z,13.89
2023-04-28T09:15:35.996Z,13.87
2023-04-28T09:18:08.155Z,13.87
2023-04-28T09:20:39.532Z,13.89
2023-04-28T09:23:18.624Z,13.87
2023-04-28T09:26:02.465Z,13.87
2023-04-28T09:28:31.018Z,13.87
2023-04-28T09:30:59.441Z,13.85
2023-04-28T09:33:29.319Z,13.83
2023-04-28T09:35:57.762Z,13.86
2023-04-28T09:38:26.802Z,13.86
2023-04-28T09:40:58.404Z,13.86
2023-04-28T09:43:29.470Z,13.86
2023-04-28T09:45:59.565Z,13.84
2023-04-28T09:48:35.552Z,13.84
2023-04-28T09:51:07.822Z,13.90
2023-04-28T09:53:36.737Z,13.93
2023-04-28T09:56:06.561Z,14.02
2023-04-28T09:58:36.805Z,14.02
2023-04-28T10:01:06.587Z,14.08
2023-04-28T10:03:37.586Z,14.13
2023-04-28T10:06:08.608Z,14.13
2023-04-28T10:08:36.907Z,14.21
2023-04-28T10:11:05.332Z,14.27
2023-04-28T10:13:33.773Z,14.32
2023-04-28T10:16:02.270Z,14.36
2023-04-28T10:18:31.998Z,14.39
2023-04-28T10:21:04.751Z,14.42
2023-04-28T10:24:05.167Z,14.46
2023-04-28T10:27:08.394Z,14.46
2023-04-28T10:29:37.693Z,14.51
2023-04-28T10:32:21.072Z,14.57
2023-04-28T10:34:49.800Z,14.60
2023-04-28T10:37:19.996Z,14.64
2023-04-28T10:40:34.804Z,14.67
2023-04-28T10:43:04.165Z,14.71
2023-04-28T10:46:01.495Z,14.74
2023-04-28T10:48:56.385Z,14.77
2023-04-28T10:51:33.164Z,14.81
2023-04-28T10:54:28.255Z,14.84
2023-04-28T10:57:22.989Z,14.87
2023-04-28T10:59:52.359Z,14.91
2023-04-28T11:02:51.122Z,14.94
2023-04-28T11:05:20.829Z,14.99
2023-04-28T11:08:34.405Z,15.00
2023-04-28T11:11:22.047Z,15.03
2023-04-28T11:13:51.518Z,15.07
2023-04-28T11:16:23.737Z,15.03
2023-04-28T11:19:04.543Z,15.09
2023-04-28T11:21:34.595Z,15.09
2023-04-28T11:24:10.521Z,15.11
2023-04-28T11:26:40.539Z,15.11
2023-04-28T11:29:09.688Z,15.12
2023-04-28T11:31:38.487Z,15.10
2023-04-28T11:34:08.375Z,15.14
2023-04-28T11:36:38.962Z,15.15
2023-04-28T11:39:08.868Z,15.16
2023-04-28T11:41:40.138Z,15.18
2023-04-28T11:44:12.904Z,15.20
2023-04-28T11:46:50.663Z,15.19
2023-04-28T11:49:21.146Z,15.25
2023-04-28T11:51:50.388Z,15.26
2023-04-28T11:54:23.409Z,15.28
2023-04-28T11:56:57.858Z,15.32
2023-04-28T11:59:28.381Z,15.33
2023-04-28T12:01:59.421Z,15.37
2023-04-28T12:04:30.567Z,15.37
2023-04-28T12:07:09.189Z,15.40
2023-04-28T12:09:40.118Z,15.42
2023-04-28T12:12:12.308Z,15.42
2023-04-28T12:14:57.789Z,15.38
2023-04-28T12:17:27.808Z,15.45
2023-04-28T12:19:56.478Z,15.48
2023-04-28T12:22:25.677Z,15.43
2023-04-28T12:25:08.563Z,15.39
2023-04-28T12:27:40.761Z,15.38
2023-04-28T12:30:27.993Z,15.38
2023-04-28T12:32:57.738Z,15.42
2023-04-28T12:35:27.523Z,15.46
2023-04-28T12:37:58.586Z,15.51
2023-04-28T12:40:27.212Z,15.49
2023-04-28T12:42:57.093Z,15.55
2023-04-28T12:45:25.507Z,15.62
2023-04-28T12:47:53.875Z,15.63
2023-04-28T12:50:22.388Z,15.64
2023-04-28T12:52:50.800Z,15.65
2023-04-28T12:55:20.229Z,15.67
2023-04-28T12:57:48.626Z,15.71
2023-04-28T13:00:23.126Z,15.70
2023-04-28T13:02:53.438Z,15.73
2023-04-28T13:05:22.121Z,15.76
2023-04-28T13:07:50.928Z,15.74
2023-04-28T13:10:21.300Z,15.77
2023-04-28T13:12:49.680Z,15.81
2023-04-28T13:15:22.512Z,15.87
2023-04-28T13:17:50.873Z,15.87
2023-04-28T13:20:19.303Z,15.87
2023-04-28T13:22:47.716Z,15.90
2023-04-28T13:25:16.359Z,15.90
2023-04-28T13:27:44.740Z,15.91
2023-04-28T13:30:26.843Z,15.93
2023-04-28T13:32:57.389Z,15.93
2023-04-28T13:35:26.298Z,15.87
2023-04-28T13:38:01.633Z,15.93
2023-04-28T13:40:30.233Z,15.96
2023-04-28T13:42:58.609Z,15.99
2023-04-28T13:45:28.789Z,15.99
2023-04-28T13:47:57.145Z,16.04
2023-04-28T13:50:25.773Z,16.08
2023-04-28T13:52:59.806Z,16.10
2023-04-28T13:55:28.759Z,16.13
2023-04-28T13:58:01.548Z,16.18
2023-04-28T14:00:32.288Z,16.21
2023-04-28T14:03:01.582Z,16.24
2023-04-28T14:05:36.120Z,16.28
2023-04-28T14:08:11.342Z,16.31
2023-04-28T14:10:47.272Z,16.31
2023-04-28T14:13:15.896Z,16.37
2023-04-28T14:15:57.891Z,16.41
2023-04-28T14:18:27.787Z,16.45
2023-04-28T14:20:56.510Z,16.48
2023-04-28T14:23:24.789Z,16.49
2023-04-28T14:25:57.998Z,16.54
2023-04-28T14:28:26.540Z,16.54
2023-04-28T14:30:56.790Z,16.57
2023-04-28T14:33:25.384Z,16.63
2023-04-28T14:35:56.545Z,16.66
2023-04-28T14:38:25.000Z,16.72
2023-04-28T14:40:53.846Z,16.70
2023-04-28T14:43:22.217Z,16.66
2023-04-28T14:45:51.163Z,16.72
2023-04-28T14:48:21.218Z,16.71
2023-04-28T14:50:51.349Z,16.76
2023-04-28T14:53:19.657Z,16.76
2023-04-28T14:55:48.028Z,16.75
2023-04-28T14:58:16.394Z,16.75
2023-04-28T15:00:44.870Z,16.78
2023-04-28T15:03:13.527Z,16.79
2023-04-28T15:05:44.081Z,16.82
2023-04-28T15:08:12.779Z,16.83
2023-04-28T15:10:41.876Z,16.83
2023-04-28T15:13:10.355Z,16.82
2023-04-28T15:15:43.601Z,16.84
2023-04-28T15:18:11.993Z,16.81
2023-04-28T15:20:40.422Z,16.79
2023-04-28T15:23:10.840Z,16.79
2023-04-28T15:25:39.278Z,16.76
2023-04-28T15:28:08.056Z,16.79
2023-04-28T15:30:36.727Z,16.79
2023-04-28T15:33:05.383Z,16.79
2023-04-28T15:35:34.998Z,16.80
2023-04-28T15:38:03.368Z,16.78
2023-04-28T15:40:33.098Z,16.77
2023-04-28T15:43:01.459Z,16.75
2023-04-28T15:45:29.875Z,16.74
2023-04-28T15:47:58.296Z,16.74
2023-04-28T15:50:26.945Z,16.73
2023-04-28T15:52:55.460Z,16.74
2023-04-28T15:55:25.122Z,16.74
2023-04-28T15:57:55.053Z,16.73
2023-04-28T16:00:23.631Z,16.70
2023-04-28T16:02:52.580Z,16.67
2023-04-28T16:05:23.879Z,16.63
2023-04-28T16:07:52.887Z,16.62
2023-04-28T16:10:21.272Z,16.60
2023-04-28T16:12:49.757Z,16.58
2023-04-28T16:15:19.803Z,16.57
2023-04-28T16:17:49.194Z,16.58
2023-04-28T16:20:17.850Z,16.56
2023-04-28T16:22:46.685Z,16.55
2023-04-28T16:25:15.069Z,16.58
2023-04-28T16:27:43.735Z,16.60
2023-04-28T16:30:22.918Z,16.59
2023-04-28T16:32:52.926Z,16.63
2023-04-28T16:35:21.828Z,16.64
2023-04-28T16:37:50.230Z,16.66
2023-04-28T16:40:18.806Z,16.67
2023-04-28T16:42:47.318Z,16.70
2023-04-28T16:45:15.812Z,16.72
2023-04-28T16:47:46.433Z,16.76
2023-04-28T16:50:15.752Z,16.78
2023-04-28T16:52:44.210Z,16.81
2023-04-28T16:55:16.398Z,16.83
2023-04-28T16:57:45.684Z,16.85
2023-04-28T17:00:15.836Z,16.87
2023-04-28T17:02:45.829Z,16.89
2023-04-28T17:05:17.578Z,16.92
2023-04-28T17:07:46.056Z,16.93
2023-04-28T17:10:14.534Z,16.95
2023-04-28T17:12:45.473Z,16.96
2023-04-28T17:15:20.310Z,16.96
2023-04-28T17:17:52.089Z,16.96
2023-04-28T17:20:21.652Z,16.99
2023-04-28T17:22:50.762Z,16.99
2023-04-28T17:25:19.662Z,17.00
2023-04-28T17:27:47.979Z,16.99
2023-04-28T17:30:16.569Z,17.01
2023-04-28T17:32:45.029Z,17.01
2023-04-28T17:35:14.810Z,17.00
2023-04-28T17:37:43.321Z,17.00
2023-04-28T17:40:13.100Z,16.99
2023-04-28T17:42:41.487Z,17.00
2023-04-28T17:45:12.153Z,16.99
2023-04-28T17:47:40.544Z,17.01
2023-04-28T17:50:10.975Z,17.00
2023-04-28T17:52:41.986Z,16.98
2023-04-28T17:55:17.685Z,17.00
2023-04-28T17:57:46.301Z,16.99
2023-04-28T18:00:15.741Z,16.99
2023-04-28T18:02:44.203Z,16.98
2023-04-28T18:05:12.692Z,16.99
2023-04-28T18:07:42.463Z,16.98
2023-04-28T18:10:15.224Z,16.98
2023-04-28T18:12:43.625Z,16.97
2023-04-28T18:15:12.974Z,16.98
2023-04-28T18:17:41.400Z,16.95
2023-04-28T18:20:16.273Z,16.95
2023-04-28T18:22:46.252Z,16.97
2023-04-28T18:25:16.782Z,16.95
2023-04-28T18:27:45.894Z,16.96
2023-04-28T18:30:16.876Z,16.97
2023-04-28T18:32:45.407Z,16.97
2023-04-28T18:35:15.122Z,16.97
2023-04-28T18:37:47.031Z,16.94
2023-04-28T18:40:20.622Z,16.98
2023-04-28T18:42:49.267Z,16.97
2023-04-28T18:45:17.978Z,16.96
2023-04-28T18:47:46.559Z,16.97
2023-04-28T18:50:18.056Z,16.97
2023-04-28T18:52:47.980Z,16.95
2023-04-28T18:55:17.362Z,16.95
2023-04-28T18:57:47.459Z,16.94
2023-04-28T19:00:16.453Z,16.91
2023-04-28T19:02:45.413Z,16.91
2023-04-28T19:05:14.525Z,16.87
2023-04-28T19:07:43.220Z,16.86
2023-04-28T19:10:14.973Z,16.85
2023-04-28T19:12:43.645Z,16.81
2023-04-28T19:15:14.984Z,16.78
2023-04-28T19:17:43.675Z,16.77
2023-04-28T19:20:13.594Z,16.74
2023-04-28T19:22:43.904Z,16.71
2023-04-28T19:25:16.171Z,16.70
2023-04-28T19:27:46.120Z,16.68
2023-04-28T19:30:16.862Z,16.67
2023-04-28T19:32:45.649Z,16.67
2023-04-28T19:35:14.673Z,16.66
2023-04-28T19:37:43.338Z,16.65
2023-04-28T19:40:16.874Z,16.62
2023-04-28T19:42:45.489Z,16.59
2023-04-28T19:45:14.183Z,16.57
2023-04-28T19:47:42.780Z,16.53
2023-04-28T19:50:16.627Z,16.47
2023-04-28T19:52:49.240Z,16.44
2023-04-28T19:55:21.352Z,16.36
2023-04-28T19:57:49.993Z,16.34
2023-04-28T20:00:19.445Z,16.35
2023-04-28T20:02:48.201Z,16.35
2023-04-28T20:05:16.859Z,16.35
2023-04-28T20:07:45.484Z,16.34
2023-04-28T20:10:14.051Z,16.35
2023-04-28T20:12:43.935Z,16.34
2023-04-28T20:15:13.789Z,16.34
2023-04-28T20:17:42.224Z,16.35
2023-04-28T20:20:11.561Z,16.34
2023-04-28T20:22:40.795Z,16.34
2023-04-28T20:25:10.986Z,16.31
2023-04-28T20:27:39.423Z,16.31
2023-04-28T20:30:10.438Z,16.30
2023-04-28T20:32:39.178Z,16.29
2023-04-28T20:35:10.052Z,16.28
2023-04-28T20:37:38.544Z,16.28
2023-04-28T20:40:10.209Z,16.25
2023-04-28T20:42:38.540Z,16.25
2023-04-28T20:45:14.895Z,16.23
2023-04-28T20:47:43.239Z,16.23
2023-04-28T20:50:13.088Z,16.21
2023-04-28T20:52:41.398Z,16.18
2023-04-28T20:55:15.773Z,16.14
2023-04-28T20:57:44.034Z,16.12
2023-04-28T21:00:16.010Z,16.09
2023-04-28T21:02:45.387Z,16.08
2023-04-28T21:05:17.767Z,16.03
2023-04-28T21:07:46.142Z,16.01
2023-04-28T21:10:14.604Z,15.96
2023-04-28T21:12:43.074Z,15.94
2023-04-28T21:15:13.445Z,15.90
2023-04-28T21:17:41.889Z,15.87
2023-04-28T21:20:11.757Z,15.84
2023-04-28T21:22:40.133Z,15.82
2023-04-28T21:25:11.305Z,15.79
2023-04-28T21:27:39.838Z,15.76
2023-04-28T21:30:10.255Z,15.70
2023-04-28T21:32:40.103Z,15.69
2023-04-28T21:35:10.785Z,15.63
2023-04-28T21:37:39.048Z,15.59
2023-04-28T21:40:09.583Z,15.56
2023-04-28T21:42:38.004Z,15.53
2023-04-28T21:45:09.453Z,15.50
2023-04-28T21:47:41.381Z,15.47
2023-04-28T21:50:11.574Z,15.42
2023-04-28T21:52:39.986Z,15.40
2023-04-28T21:55:09.561Z,15.36
2023-04-28T21:57:37.860Z,15.33
2023-04-28T22:00:10.792Z,15.30
2023-04-28T22:02:41.648Z,15.27
2023-04-28T22:05:10.995Z,15.24
2023-04-28T22:07:39.308Z,15.22
2023-04-28T22:10:12.292Z,15.18
2023-04-28T22:12:40.615Z,15.15
2023-04-28T22:15:10.303Z,15.12
2023-04-28T22:17:40.500Z,15.09
2023-04-28T22:20:10.402Z,15.06
2023-04-28T22:22:38.687Z,15.03
2023-04-28T22:25:08.746Z,15.00
2023-04-28T22:27:37.107Z,14.97
2023-04-28T22:30:08.310Z,14.93
2023-04-28T22:32:36.838Z,14.91
2023-04-28T22:35:07.884Z,14.88
2023-04-28T22:37:38.012Z,14.84
2023-04-28T22:40:08.810Z,14.83
2023-04-28T22:42:37.991Z,14.81
2023-04-28T22:45:07.635Z,14.80
2023-04-28T22:47:36.477Z,14.80
2023-04-28T22:50:08.073Z,14.78
2023-04-28T22:52:36.666Z,14.75
2023-04-28T22:55:12.684Z,14.73
2023-04-28T22:57:41.129Z,14.74
2023-04-28T23:00:11.162Z,14.73
2023-04-28T23:02:39.692Z,14.72
2023-04-28T23:05:15.914Z,14.71
2023-04-28T23:07:44.602Z,14.72
2023-04-28T23:10:18.379Z,14.71
2023-04-28T23:12:46.875Z,14.71
2023-04-28T23:15:15.208Z,14.72
2023-04-28T23:17:45.072Z,14.73
2023-04-28T23:20:15.725Z,14.73
2023-04-28T23:22:44.013Z,14.74
2023-04-28T23:25:12.550Z,14.75
2023-04-28T23:27:40.916Z,14.76
2023-04-28T23:30:11.180Z,14.77
2023-04-28T23:32:39.791Z,14.78
2023-04-28T23:35:09.029Z,14.78
2023-04-28T23:37:38.873Z,14.78
2023-04-28T23:40:12.078Z,14.79
2023-04-28T23:42:41.140Z,14.79
2023-04-28T23:45:11.025Z,14.78
2023-04-28T23:47:40.446Z,14.78
2023-04-28T23:50:14.623Z,14.77
2023-04-28T23:52:44.793Z,14.78
2023-04-28T23:55:16.317Z,14.79
2023-04-28T23:57:49.973Z,14.80
